createdAt,value
2022-09-14T00:09:45.939Z,11.20
2022-09-14T00:22:03.227Z,11.00
2022-09-14T00:26:58.248Z,11.00
2022-09-14T00:29:25.545Z,10.80
2022-09-14T00:31:52.847Z,11.00
2022-09-14T00:34:20.333Z,10.90
2022-09-14T00:36:50.808Z,11.00
2022-09-14T00:39:19.815Z,10.80
2022-09-14T00:41:48.725Z,10.90
2022-09-14T00:44:15.681Z,10.90
2022-09-14T00:46:47.008Z,10.80
2022-09-14T00:49:29.886Z,10.90
2022-09-14T00:52:09.471Z,10.80
2022-09-14T00:54:39.878Z,10.90
2022-09-14T06:12:28.468Z,12.00
2022-09-14T06:14:55.381Z,12.20
2022-09-14T06:17:22.440Z,12.00
2022-09-14T06:19:49.313Z,12.10
2022-09-14T06:22:17.391Z,12.00
2022-09-14T06:24:44.268Z,12.00
2022-09-14T06:27:12.023Z,12.00
2022-09-14T10:13:06.153Z,13.30
2022-09-14T10:18:10.225Z,13.20
2022-09-14T10:31:12.340Z,13.10
2022-09-14T10:36:42.890Z,13.60
2022-09-14T10:39:21.133Z,13.50
2022-09-14T10:42:14.372Z,13.60
2022-09-14T10:47:18.881Z,13.80
2022-09-14T10:50:01.229Z,14.00
2022-09-14T10:52:49.314Z,13.80
2022-09-14T10:55:25.671Z,14.00
2022-09-14T11:00:23.223Z,14.30
2022-09-14T11:03:02.086Z,14.30
2022-09-14T11:11:13.768Z,14.40
2022-09-14T11:14:06.169Z,14.30
2022-09-14T11:19:24.671Z,14.70
2022-09-14T11:22:03.712Z,14.80
2022-09-14T11:24:37.681Z,15.30
2022-09-14T11:27:04.641Z,15.20
2022-09-14T11:29:46.698Z,15.50
2022-09-14T11:32:23.810Z,15.60
2022-09-14T12:41:01.949Z,16.30
2022-09-14T12:46:08.136Z,16.30
2022-09-14T12:48:53.059Z,16.40
2022-09-14T12:51:32.485Z,16.30
2022-09-14T12:54:00.448Z,16.30
2022-09-14T12:56:50.646Z,16.30
2022-09-14T12:59:30.224Z,16.10
2022-09-14T13:02:10.268Z,16.00
2022-09-14T13:04:39.336Z,16.10
2022-09-14T13:07:17.728Z,16.10
2022-09-14T13:10:06.402Z,16.10
2022-09-14T13:12:52.047Z,15.90
2022-09-14T13:15:25.704Z,15.90
2022-09-14T13:18:06.697Z,15.90
2022-09-14T13:20:35.856Z,15.90
2022-09-14T13:23:03.536Z,16.00
2022-09-14T13:25:32.974Z,16.10
2022-09-14T13:28:05.724Z,16.20
2022-09-14T13:30:34.650Z,16.20
2022-09-14T13:33:03.509Z,16.10
2022-09-14T13:35:36.931Z,16.10
2022-09-14T13:38:21.052Z,16.00
2022-09-14T13:40:49.948Z,15.90
2022-09-14T13:43:19.612Z,15.80
2022-09-14T13:45:47.323Z,15.70
2022-09-14T13:48:16.317Z,15.70
2022-09-14T13:50:47.122Z,15.50
2022-09-14T13:53:45.782Z,15.60
2022-09-14T13:56:19.766Z,15.60
2022-09-14T13:58:48.732Z,15.60
2022-09-14T14:01:26.176Z,15.60
2022-09-14T14:03:53.399Z,15.60
2022-09-14T14:06:30.936Z,15.70
2022-09-14T14:09:09.582Z,15.70
2022-09-14T14:11:45.634Z,15.80
2022-09-14T14:14:19.383Z,15.80
2022-09-14T14:17:14.052Z,15.80
2022-09-14T14:19:41.051Z,15.70
2022-09-14T14:22:13.831Z,15.70
2022-09-14T14:25:02.396Z,15.60
2022-09-14T14:27:31.900Z,15.70
2022-09-14T14:30:01.547Z,15.90
2022-09-14T14:32:29.837Z,15.90
2022-09-14T14:34:57.330Z,15.90
2022-09-14T14:37:25.970Z,15.90
2022-09-14T14:39:53.040Z,15.80
2022-09-14T14:42:20.107Z,15.80
2022-09-14T14:44:48.560Z,15.70
2022-09-14T14:47:16.956Z,15.90
2022-09-14T14:49:43.900Z,15.90
2022-09-14T14:52:12.772Z,15.90
2022-09-14T14:54:41.225Z,15.90
2022-09-14T14:57:11.117Z,15.80
2022-09-14T14:59:40.907Z,15.70
2022-09-14T15:02:12.009Z,15.70
2022-09-14T15:04:40.498Z,15.60
2022-09-14T15:07:08.539Z,15.50
2022-09-14T15:09:36.555Z,15.50
2022-09-14T15:12:03.675Z,15.50
2022-09-14T15:14:33.296Z,15.50
2022-09-14T15:17:02.923Z,15.50
2022-09-14T15:19:29.850Z,15.40
2022-09-14T15:22:01.373Z,15.40
2022-09-14T15:24:31.865Z,15.30
2022-09-14T15:27:01.980Z,15.30
2022-09-14T15:29:29.147Z,15.20
2022-09-14T15:31:56.473Z,15.10
2022-09-14T15:34:23.882Z,15.10
2022-09-14T15:36:57.494Z,15.00
2022-09-14T15:39:27.036Z,14.90
2022-09-14T15:41:56.794Z,14.80
2022-09-14T15:44:25.974Z,14.70
2022-09-14T15:46:56.652Z,14.60
2022-09-14T15:49:25.395Z,14.60
2022-09-14T15:51:56.411Z,14.80
2022-09-14T15:54:37.964Z,14.60
2022-09-14T15:57:11.023Z,14.40
2022-09-14T15:59:38.039Z,14.60
2022-09-14T16:02:05.109Z,14.40
2022-09-14T16:04:37.166Z,14.40
2022-09-14T16:07:09.568Z,14.30
2022-09-14T16:09:38.777Z,14.10
2022-09-14T16:12:06.716Z,14.30
2022-09-14T16:14:34.115Z,14.20
2022-09-14T16:17:01.109Z,14.30
2022-09-14T16:19:28.289Z,14.30
2022-09-14T16:21:55.351Z,14.40
2022-09-14T16:24:24.156Z,14.40
2022-09-14T16:26:51.362Z,14.30
2022-09-14T16:29:19.797Z,14.30
2022-09-14T16:31:48.354Z,14.50
2022-09-14T16:34:20.023Z,14.30
2022-09-14T16:36:47.961Z,14.20
2022-09-14T16:39:20.930Z,14.20
2022-09-14T16:41:50.327Z,14.50
2022-09-14T16:44:24.632Z,14.10
2022-09-14T16:46:53.421Z,14.30
2022-09-14T16:49:24.978Z,14.20
2022-09-14T16:51:54.368Z,14.00
2022-09-14T16:54:23.255Z,13.90
2022-09-14T16:56:50.813Z,13.90
2022-09-14T16:59:18.017Z,14.10
2022-09-14T17:01:48.706Z,13.90
2022-09-14T17:06:51.660Z,14.10
2022-09-14T17:11:48.771Z,13.40
2022-09-14T17:14:19.081Z,14.10
2022-09-14T17:16:46.760Z,14.10
2022-09-14T17:26:42.966Z,13.50
2022-09-14T17:31:41.765Z,13.30
2022-09-14T17:36:38.339Z,13.50
2022-09-14T17:41:40.578Z,13.60
2022-09-14T17:44:13.055Z,13.40
2022-09-14T17:46:52.113Z,13.30
2022-09-14T17:49:24.827Z,13.50
2022-09-14T17:51:55.329Z,13.30
2022-09-14T17:54:22.263Z,13.40
2022-09-14T17:56:52.549Z,13.40
2022-09-14T17:59:22.496Z,13.40
2022-09-14T18:01:52.306Z,13.30
2022-09-14T18:04:21.773Z,13.40
2022-09-14T18:06:52.036Z,13.40
2022-09-14T18:09:22.467Z,13.50
2022-09-14T18:11:56.800Z,13.40
2022-09-14T18:14:24.914Z,13.30
2022-09-14T18:16:51.820Z,13.20
2022-09-14T18:19:21.818Z,13.40
2022-09-14T18:21:52.807Z,13.50
2022-09-14T18:24:22.285Z,13.40
2022-09-14T18:26:51.349Z,13.20
2022-09-14T18:29:25.912Z,13.50
2022-09-14T18:31:53.851Z,13.20
2022-09-14T18:34:24.904Z,13.50
2022-09-14T18:36:57.056Z,13.40
2022-09-14T18:39:28.454Z,13.40
2022-09-14T18:41:58.389Z,13.30
2022-09-14T18:44:28.077Z,13.30
2022-09-14T18:46:59.780Z,13.20
2022-09-14T18:49:28.534Z,13.40
2022-09-14T18:51:56.691Z,13.20
2022-09-14T18:54:28.852Z,13.20
2022-09-14T18:56:56.819Z,13.30
2022-09-14T18:59:25.598Z,13.20
2022-09-14T19:01:54.364Z,13.40
2022-09-14T19:04:22.651Z,13.40
2022-09-14T19:06:51.024Z,13.20
2022-09-14T19:09:19.822Z,13.40
2022-09-14T19:11:49.902Z,13.30
2022-09-14T19:14:20.682Z,13.20
2022-09-14T19:16:50.075Z,13.10
2022-09-14T19:19:19.253Z,13.40
2022-09-14T19:26:50.036Z,12.90
2022-09-14T19:29:26.514Z,13.10
2022-09-14T19:31:53.735Z,12.80
2022-09-14T19:34:22.551Z,13.00
2022-09-14T19:36:53.858Z,12.80
2022-09-14T19:39:28.199Z,12.80
2022-09-14T19:41:55.084Z,12.90
2022-09-14T19:44:23.281Z,13.00
2022-09-14T19:46:50.857Z,13.10
2022-09-14T19:49:20.747Z,12.80
2022-09-14T19:51:49.107Z,13.00
2022-09-14T19:54:16.014Z,12.80
2022-09-14T19:56:43.706Z,12.90
2022-09-14T19:59:10.971Z,12.80
2022-09-14T20:01:39.847Z,13.00
2022-09-14T20:04:07.919Z,12.80
2022-09-14T20:06:40.278Z,12.90
2022-09-14T20:09:16.025Z,12.90
2022-09-14T20:11:45.004Z,12.80
2022-09-14T20:14:15.022Z,12.90
2022-09-14T20:16:44.960Z,12.90
2022-09-14T20:19:13.007Z,13.10
2022-09-14T20:21:41.392Z,13.10
2022-09-14T20:26:45.349Z,13.10
2022-09-14T20:29:14.704Z,13.00
2022-09-14T20:46:38.676Z,12.90
2022-09-14T20:51:36.111Z,12.60
2022-09-14T20:54:03.470Z,12.60
2022-09-14T20:56:32.232Z,12.40
2022-09-14T20:59:01.537Z,12.60
2022-09-14T21:01:31.170Z,12.50
2022-09-14T21:28:48.782Z,11.70
2022-09-14T21:36:25.563Z,11.80
2022-09-14T21:38:57.680Z,11.90
2022-09-14T21:41:26.269Z,11.90
2022-09-14T21:43:53.517Z,11.90
2022-09-14T21:46:21.474Z,11.90
2022-09-14T21:48:48.609Z,11.90
2022-09-14T21:51:17.163Z,12.00
2022-09-14T21:53:46.362Z,12.10
2022-09-14T21:56:14.161Z,11.90
2022-09-14T21:58:41.503Z,11.90
2022-09-14T22:01:09.558Z,12.00
2022-09-14T22:03:37.087Z,11.90
2022-09-14T22:06:08.001Z,11.90
2022-09-14T22:08:35.814Z,11.90
2022-09-14T22:11:23.621Z,12.00
2022-09-14T22:14:03.193Z,11.90
2022-09-14T22:16:34.136Z,11.90
2022-09-14T22:19:04.935Z,12.10
2022-09-14T22:21:34.130Z,12.20
2022-09-14T22:24:03.132Z,12.00
2022-09-14T22:28:59.697Z,12.10
2022-09-14T22:31:28.342Z,12.10
2022-09-14T22:33:57.193Z,12.00
2022-09-14T22:36:24.240Z,12.00
2022-09-14T22:38:51.418Z,12.10
2022-09-14T22:41:22.323Z,12.20
2022-09-14T22:43:49.770Z,12.10
2022-09-14T22:46:17.508Z,12.20
2022-09-14T22:48:45.573Z,12.20
2022-09-14T22:51:18.153Z,12.30
2022-09-14T22:53:45.037Z,12.00
2022-09-14T22:56:20.791Z,12.20
2022-09-14T22:58:48.908Z,12.20
2022-09-14T23:01:21.958Z,12.10
2022-09-14T23:03:49.628Z,12.30
2022-09-14T23:06:16.809Z,12.40
2022-09-14T23:08:44.042Z,12.30
2022-09-14T23:11:12.346Z,12.10
2022-09-14T23:13:41.071Z,12.20
2022-09-14T23:16:16.155Z,12.30
2022-09-14T23:21:11.278Z,12.00
2022-09-14T23:23:38.532Z,12.10
2022-09-14T23:26:08.015Z,12.00
2022-09-14T23:28:35.302Z,12.00
2022-09-14T23:31:04.099Z,12.30
2022-09-14T23:33:31.500Z,12.10
2022-09-14T23:35:58.492Z,12.10
2022-09-14T23:38:25.976Z,12.10
2022-09-14T23:40:53.576Z,12.10
2022-09-14T23:43:20.665Z,12.40
2022-09-14T23:45:48.271Z,12.10
2022-09-14T23:55:37.899Z,12.40
2022-09-14T23:58:05.135Z,12.40
